createdAt,value
2017-10-13T00:01:24.990Z,0.0
2017-10-13T00:11:39.256Z,0.0
2017-10-13T00:21:53.465Z,0.0
2017-10-13T00:32:05.702Z,0.0
2017-10-13T00:42:19.620Z,0.0
2017-10-13T00:52:34.157Z,0.0
2017-10-13T01:02:46.097Z,0.0
2017-10-13T01:12:59.821Z,0.0
2017-10-13T01:23:13.832Z,0.0
2017-10-13T01:33:25.390Z,0.0
2017-10-13T01:43:37.465Z,0.0
2017-10-13T01:53:52.536Z,0.0
2017-10-13T02:04:06.161Z,0.0
2017-10-13T02:14:20.205Z,0.0
2017-10-13T02:25:05.934Z,0.0
2017-10-13T02:35:19.134Z,0.0
2017-10-13T02:45:32.646Z,0.0
2017-10-13T02:55:46.865Z,0.0
2017-10-13T03:06:00.961Z,0.0
2017-10-13T03:16:15.228Z,0.0
2017-10-13T03:26:29.162Z,0.0
2017-10-13T03:36:52.811Z,0.0
2017-10-13T03:47:06.775Z,0.0
2017-10-13T03:57:20.756Z,0.0
2017-10-13T04:07:33.944Z,0.0
2017-10-13T04:17:47.182Z,0.0
2017-10-13T04:28:00.728Z,0.0
2017-10-13T04:38:14.845Z,0.0
2017-10-13T04:48:59.290Z,0.0
2017-10-13T04:59:11.118Z,0.0
2017-10-13T05:09:24.918Z,0.0
2017-10-13T05:19:38.234Z,0.0
2017-10-13T05:29:51.294Z,0.0
2017-10-13T05:40:13.319Z,0.0
2017-10-13T05:50:26.808Z,5.0
2017-10-13T06:00:40.419Z,10.0
2017-10-13T06:10:54.511Z,20.0
2017-10-13T06:21:09.187Z,30.0
2017-10-13T06:31:22.794Z,40.0
2017-10-13T06:41:37.374Z,40.0
2017-10-13T06:51:51.764Z,55.0
2017-10-13T07:02:05.714Z,70.0
2017-10-13T07:12:20.048Z,95.0
2017-10-13T07:22:34.075Z,130.0
2017-10-13T07:32:48.312Z,120.0
2017-10-13T07:43:02.572Z,160.0
2017-10-13T07:53:16.572Z,235.0
2017-10-13T08:03:31.093Z,1280.0
2017-10-13T08:13:45.569Z,1255.0
2017-10-13T08:24:30.827Z,1775.0
2017-10-13T08:34:45.335Z,1210.0
2017-10-13T08:44:57.535Z,530.0
2017-10-13T08:55:11.808Z,410.0
2017-10-13T09:05:25.987Z,330.0
2017-10-13T09:15:40.460Z,390.0
2017-10-13T09:25:52.813Z,235.0
2017-10-13T09:36:07.023Z,425.0
2017-10-13T09:46:21.171Z,990.0
2017-10-13T09:56:35.032Z,375.0
2017-10-13T10:06:49.422Z,1140.0
2017-10-13T10:17:00.519Z,2265.0
2017-10-13T10:27:14.908Z,525.0
2017-10-13T10:37:28.982Z,2155.0
2017-10-13T10:47:43.231Z,2890.0
2017-10-13T10:57:57.696Z,2590.0
2017-10-13T11:08:09.686Z,2865.0
2017-10-13T11:18:55.238Z,2650.0
2017-10-13T11:29:08.786Z,1825.0
2017-10-13T11:39:54.266Z,2850.0
2017-10-13T11:50:39.208Z,2670.0
2017-10-13T12:00:54.010Z,2860.0
2017-10-13T12:11:39.343Z,2440.0
2017-10-13T12:22:25.802Z,1745.0
2017-10-13T12:32:49.002Z,1985.0
2017-10-13T12:43:02.636Z,1195.0
2017-10-13T12:53:16.909Z,1365.0
2017-10-13T13:03:30.813Z,1490.0
2017-10-13T13:14:49.773Z,1415.0
2017-10-13T13:25:03.915Z,1865.0
2017-10-13T13:35:49.673Z,1870.0
2017-10-13T13:46:34.648Z,600.0
2017-10-13T13:56:45.918Z,765.0
2017-10-13T14:07:00.475Z,315.0
2017-10-13T14:17:14.612Z,175.0
2017-10-13T14:27:59.841Z,170.0
2017-10-13T14:38:14.074Z,135.0
2017-10-13T14:48:59.067Z,130.0
2017-10-13T14:59:44.840Z,115.0
2017-10-13T15:10:30.792Z,225.0
2017-10-13T15:21:16.351Z,200.0
2017-10-13T15:32:03.015Z,135.0
2017-10-13T15:42:44.015Z,90.0
2017-10-13T15:53:01.101Z,55.0
2017-10-13T16:03:46.236Z,15.0
2017-10-13T16:14:00.416Z,10.0
2017-10-13T16:25:35.308Z,10.0
2017-10-13T16:35:47.337Z,5.0
2017-10-13T16:47:21.088Z,0.0
2017-10-13T16:58:07.324Z,0.0
2017-10-13T17:08:21.222Z,0.0
2017-10-13T17:19:26.534Z,0.0
2017-10-13T17:29:57.197Z,0.0
2017-10-13T17:41:00.102Z,0.0
2017-10-13T17:52:52.617Z,0.0
2017-10-13T18:04:21.369Z,0.0
2017-10-13T18:16:02.683Z,0.0
2017-10-13T18:27:09.831Z,0.0
2017-10-13T18:37:38.564Z,0.0
2017-10-13T18:48:46.745Z,0.0
2017-10-13T18:59:00.684Z,0.0
2017-10-13T19:09:15.072Z,0.0
2017-10-13T19:20:00.347Z,0.0
2017-10-13T19:30:45.137Z,0.0
2017-10-13T19:40:56.652Z,0.0
2017-10-13T19:51:10.753Z,0.0
2017-10-13T20:01:25.398Z,0.0
2017-10-13T20:12:10.855Z,0.0
2017-10-13T20:22:56.349Z,0.0
2017-10-13T20:33:41.220Z,0.0
2017-10-13T20:43:55.663Z,0.0
2017-10-13T20:54:07.108Z,0.0
2017-10-13T21:04:52.315Z,0.0
2017-10-13T21:15:05.997Z,0.0
2017-10-13T21:25:51.556Z,0.0
2017-10-13T21:36:06.109Z,0.0
2017-10-13T21:46:20.318Z,0.0
2017-10-13T21:56:36.625Z,0.0
2017-10-13T22:06:50.512Z,0.0
2017-10-13T22:17:04.584Z,0.0
2017-10-13T22:27:18.903Z,0.0
2017-10-13T22:37:33.096Z,0.0
2017-10-13T22:47:47.035Z,0.0
2017-10-13T22:58:02.397Z,0.0
2017-10-13T23:08:17.024Z,0.0
2017-10-13T23:18:30.607Z,0.0
2017-10-13T23:28:45.193Z,0.0
2017-10-13T23:38:59.410Z,0.0
2017-10-13T23:49:44.973Z,0.0
